createdAt,value
2022-08-26T00:02:12.698Z,6.13
2022-08-26T00:04:42.266Z,6.50
2022-08-26T00:07:11.179Z,6.05
2022-08-26T00:09:40.346Z,5.72
2022-08-26T00:12:12.464Z,6.20
2022-08-26T00:14:41.662Z,6.03
2022-08-26T00:17:09.916Z,6.15
2022-08-26T00:19:38.171Z,6.35
2022-08-26T00:22:07.541Z,6.00
2022-08-26T00:24:35.519Z,6.38
2022-08-26T00:27:03.536Z,6.50
2022-08-26T00:29:34.904Z,6.70
2022-08-26T00:32:06.849Z,6.00
2022-08-26T00:34:35.307Z,6.47
2022-08-26T00:37:03.553Z,5.88
2022-08-26T00:39:36.364Z,6.57
2022-08-26T00:42:04.304Z,6.68
2022-08-26T00:44:32.278Z,5.78
2022-08-26T00:47:05.137Z,6.35
2022-08-26T00:49:38.703Z,6.40
2022-08-26T00:54:46.727Z,5.90
2022-08-26T00:57:17.238Z,5.88
2022-08-26T00:59:47.782Z,5.75
2022-08-26T01:02:19.918Z,7.00
2022-08-26T01:04:54.410Z,6.82
2022-08-26T01:07:25.672Z,6.53
2022-08-26T01:09:55.581Z,6.65
2022-08-26T01:12:25.151Z,5.88
2022-08-26T01:14:53.914Z,6.57
2022-08-26T01:17:22.179Z,6.68
2022-08-26T01:19:53.796Z,7.03
2022-08-26T01:22:28.208Z,6.82
2022-08-26T01:24:59.970Z,6.60
2022-08-26T01:27:32.638Z,7.05
2022-08-26T01:30:02.680Z,7.30
2022-08-26T01:32:32.819Z,6.53
2022-08-26T01:35:02.379Z,7.43
2022-08-26T01:37:34.905Z,6.88
2022-08-26T01:40:06.828Z,6.33
2022-08-26T01:42:35.826Z,6.15
2022-08-26T01:45:10.131Z,6.88
2022-08-26T01:47:39.462Z,6.55
2022-08-26T01:50:20.066Z,7.03
2022-08-26T01:52:58.436Z,6.80
2022-08-26T01:55:32.410Z,6.53
2022-08-26T01:58:05.714Z,6.82
2022-08-26T02:00:34.859Z,6.90
2022-08-26T02:03:17.971Z,6.60
2022-08-26T02:05:53.622Z,6.85
2022-08-26T02:08:26.872Z,6.35
2022-08-26T02:10:56.655Z,6.38
2022-08-26T02:13:27.314Z,6.25
2022-08-26T02:15:56.437Z,6.85
2022-08-26T02:18:26.309Z,6.38
2022-08-26T02:20:57.018Z,6.57
2022-08-26T02:23:25.460Z,6.40
2022-08-26T02:26:01.029Z,7.38
2022-08-26T02:28:32.651Z,7.13
2022-08-26T02:31:00.663Z,6.90
2022-08-26T02:33:31.468Z,6.85
2022-08-26T02:35:59.345Z,7.85
2022-08-26T02:38:27.730Z,7.28
2022-08-26T02:40:57.179Z,6.85
2022-08-26T02:43:32.647Z,7.25
2022-08-26T02:46:02.287Z,6.90
2022-08-26T02:48:31.137Z,7.25
2022-08-26T02:51:01.797Z,6.97
2022-08-26T02:53:32.046Z,7.13
2022-08-26T02:56:05.665Z,7.60
2022-08-26T02:58:33.616Z,6.82
2022-08-26T03:01:02.409Z,7.07
2022-08-26T03:03:33.847Z,7.60
2022-08-26T03:06:02.063Z,7.75
2022-08-26T03:08:29.968Z,7.18
2022-08-26T03:10:58.651Z,7.25
2022-08-26T03:13:30.847Z,6.78
2022-08-26T03:15:58.985Z,7.13
2022-08-26T03:18:26.917Z,7.45
2022-08-26T03:20:54.884Z,7.78
2022-08-26T03:23:23.412Z,7.78
2022-08-26T03:25:52.376Z,6.97
2022-08-26T03:28:20.670Z,7.90
2022-08-26T03:30:49.352Z,7.90
2022-08-26T03:33:18.000Z,6.95
2022-08-26T03:35:47.860Z,7.65
2022-08-26T03:38:19.795Z,7.80
2022-08-26T03:40:47.804Z,7.60
2022-08-26T03:43:17.196Z,7.85
2022-08-26T03:45:45.988Z,7.32
2022-08-26T03:48:15.640Z,8.40
2022-08-26T03:50:43.522Z,8.52
2022-08-26T03:53:13.241Z,7.30
2022-08-26T03:55:42.247Z,7.32
2022-08-26T03:58:11.933Z,7.57
2022-08-26T04:00:39.911Z,8.27
2022-08-26T04:03:09.929Z,8.25
2022-08-26T04:05:39.635Z,7.55
2022-08-26T04:08:07.837Z,8.10
2022-08-26T04:10:38.925Z,7.75
2022-08-26T04:13:07.340Z,8.05
2022-08-26T04:15:35.422Z,8.88
2022-08-26T04:18:03.367Z,7.05
2022-08-26T04:20:31.921Z,7.68
2022-08-26T04:23:01.369Z,7.72
2022-08-26T04:25:29.493Z,8.30
2022-08-26T04:27:57.414Z,8.70
2022-08-26T04:30:25.366Z,8.00
2022-08-26T04:32:53.569Z,7.80
2022-08-26T04:35:25.587Z,7.70
2022-08-26T04:37:55.447Z,8.30
2022-08-26T04:40:27.509Z,8.15
2022-08-26T04:42:56.413Z,8.18
2022-08-26T04:45:25.274Z,8.15
2022-08-26T04:47:57.294Z,7.57
2022-08-26T04:50:26.948Z,7.70
2022-08-26T04:52:56.152Z,7.95
2022-08-26T04:55:38.201Z,8.13
2022-08-26T05:00:39.824Z,7.78
2022-08-26T05:03:10.548Z,7.55
2022-08-26T05:05:40.988Z,8.70
2022-08-26T05:08:09.439Z,7.47
2022-08-26T05:10:45.847Z,8.27
2022-08-26T05:13:15.682Z,8.05
2022-08-26T05:15:45.035Z,7.97
2022-08-26T05:18:14.176Z,8.07
2022-08-26T05:20:43.752Z,8.68
2022-08-26T05:23:12.888Z,7.78
2022-08-26T05:25:41.934Z,7.70
2022-08-26T05:28:11.519Z,8.52
2022-08-26T05:30:41.049Z,8.10
2022-08-26T05:33:10.169Z,7.57
2022-08-26T05:35:39.179Z,8.05
2022-08-26T05:38:12.400Z,8.43
2022-08-26T05:40:43.236Z,8.20
2022-08-26T05:43:13.463Z,7.43
2022-08-26T05:45:46.325Z,8.65
2022-08-26T05:48:16.087Z,8.63
2022-08-26T05:50:46.633Z,8.38
2022-08-26T05:53:16.400Z,9.00
2022-08-26T05:55:48.225Z,8.32
2022-08-26T05:58:20.207Z,8.50
2022-08-26T06:00:57.139Z,7.82
2022-08-26T06:03:25.087Z,7.53
2022-08-26T06:05:53.024Z,8.95
2022-08-26T06:08:21.234Z,8.13
2022-08-26T06:10:51.013Z,7.82
2022-08-26T06:13:23.706Z,8.77
2022-08-26T06:15:52.699Z,9.60
2022-08-26T06:18:23.484Z,8.32
2022-08-26T06:20:57.223Z,7.70
2022-08-26T06:23:44.574Z,7.85
2022-08-26T06:26:13.287Z,8.18
2022-08-26T06:28:45.603Z,7.25
2022-08-26T06:31:14.322Z,7.03
2022-08-26T06:33:42.502Z,8.55
2022-08-26T06:36:10.643Z,8.02
2022-08-26T06:38:38.577Z,7.43
2022-08-26T06:41:10.435Z,7.72
2022-08-26T06:43:39.179Z,8.30
2022-08-26T06:46:11.824Z,7.60
2022-08-26T06:48:40.554Z,9.10
2022-08-26T06:51:13.094Z,7.53
2022-08-26T06:53:43.110Z,7.75
2022-08-26T06:56:12.189Z,9.10
2022-08-26T06:58:41.235Z,7.28
2022-08-26T07:01:18.694Z,8.35
2022-08-26T07:03:49.079Z,7.68
2022-08-26T07:06:19.369Z,7.15
2022-08-26T07:08:47.331Z,7.20
2022-08-26T07:11:15.566Z,7.68
2022-08-26T07:13:44.808Z,8.10
2022-08-26T07:16:17.709Z,7.43
2022-08-26T07:18:46.939Z,7.90
2022-08-26T07:21:18.203Z,7.57
2022-08-26T07:23:46.913Z,7.95
2022-08-26T07:26:18.031Z,7.70
2022-08-26T07:28:47.297Z,8.35
2022-08-26T07:31:17.739Z,6.72
2022-08-26T07:33:46.337Z,6.55
2022-08-26T07:36:15.827Z,7.43
2022-08-26T07:38:45.203Z,7.47
2022-08-26T07:41:14.257Z,7.45
2022-08-26T07:43:43.666Z,7.28
2022-08-26T07:46:16.472Z,6.95
2022-08-26T07:48:46.400Z,6.95
2022-08-26T07:51:15.432Z,6.75
2022-08-26T07:53:43.416Z,6.50
2022-08-26T07:56:16.622Z,7.47
2022-08-26T07:58:47.676Z,7.18
2022-08-26T08:01:18.455Z,7.00
2022-08-26T08:03:48.096Z,7.47
2022-08-26T08:06:18.806Z,6.97
2022-08-26T08:08:47.694Z,6.78
2022-08-26T08:11:20.698Z,7.22
2022-08-26T08:13:48.843Z,6.22
2022-08-26T08:16:17.185Z,6.72
2022-08-26T08:18:45.761Z,6.38
2022-08-26T08:21:21.389Z,7.32
2022-08-26T08:23:50.574Z,6.90
2022-08-26T08:26:18.551Z,6.32
2022-08-26T08:28:47.946Z,6.90
2022-08-26T08:31:45.036Z,5.95
2022-08-26T08:34:10.963Z,5.82
2022-08-26T08:36:40.269Z,6.50
2022-08-26T08:39:09.530Z,5.85
2022-08-26T08:41:54.071Z,6.03
2022-08-26T08:47:02.387Z,5.50
2022-08-26T08:49:31.622Z,6.22
2022-08-26T08:52:05.918Z,6.60
2022-08-26T08:54:34.128Z,6.13
2022-08-26T08:57:10.304Z,6.15
2022-08-26T08:59:50.882Z,7.07
2022-08-26T09:02:24.075Z,6.70
2022-08-26T09:07:39.210Z,5.50
2022-08-26T09:10:25.658Z,5.65
2022-08-26T09:12:54.058Z,5.00
2022-08-26T09:15:30.223Z,6.10
2022-08-26T09:18:10.914Z,6.05
2022-08-26T09:20:50.835Z,4.85
2022-08-26T09:23:20.193Z,5.75
2022-08-26T09:25:51.051Z,5.22
2022-08-26T09:28:22.388Z,5.97
2022-08-26T09:31:11.686Z,5.95
2022-08-26T09:33:41.230Z,5.63
2022-08-26T09:36:24.804Z,6.53
2022-08-26T09:38:55.180Z,6.22
2022-08-26T09:41:31.693Z,5.47
2022-08-26T09:44:18.237Z,4.93
2022-08-26T09:46:55.303Z,5.57
2022-08-26T09:49:36.431Z,6.20
2022-08-26T09:52:20.968Z,5.70
2022-08-26T09:55:03.438Z,5.68
2022-08-26T09:57:34.610Z,5.73
2022-08-26T10:00:03.026Z,6.28
2022-08-26T10:02:47.673Z,4.97
2022-08-26T10:05:20.130Z,5.78
2022-08-26T10:07:51.189Z,6.07
2022-08-26T10:10:26.209Z,5.80
2022-08-26T10:13:10.649Z,5.30
2022-08-26T10:15:50.632Z,5.13
2022-08-26T10:18:23.669Z,5.68
2022-08-26T10:20:57.921Z,6.25
2022-08-26T10:23:28.497Z,4.78
2022-08-26T10:26:03.900Z,5.78
2022-08-26T10:28:38.764Z,5.38
2022-08-26T10:31:29.587Z,5.78
2022-08-26T10:34:06.625Z,5.53
2022-08-26T10:37:15.610Z,6.28
2022-08-26T10:39:46.174Z,7.63
2022-08-26T10:42:23.093Z,5.90
2022-08-26T10:44:58.410Z,6.13
2022-08-26T10:47:34.132Z,6.40
2022-08-26T12:44:53.862Z,9.02
2022-08-26T12:47:30.982Z,4.72
2022-08-26T12:50:17.407Z,4.65
2022-08-26T12:52:56.530Z,3.70
2022-08-26T12:55:27.860Z,3.58
2022-08-26T12:58:12.711Z,4.38
2022-08-26T13:00:47.373Z,3.17
2022-08-26T13:03:43.819Z,3.47
2022-08-26T13:06:27.844Z,3.67
2022-08-26T13:08:58.134Z,3.08
2022-08-26T13:11:28.211Z,3.38
2022-08-26T13:13:59.988Z,3.63
2022-08-26T13:16:29.837Z,3.47
2022-08-26T13:18:59.829Z,3.72
2022-08-26T13:21:32.017Z,4.15
2022-08-26T13:24:08.861Z,4.28
2022-08-26T13:26:36.773Z,4.45
2022-08-26T13:29:10.057Z,4.30
2022-08-26T13:31:42.034Z,4.40
2022-08-26T13:34:11.753Z,4.28
2022-08-26T13:36:40.174Z,4.55
2022-08-26T13:39:08.238Z,5.43
2022-08-26T13:41:36.321Z,5.20
2022-08-26T13:44:04.881Z,4.85
2022-08-26T13:46:33.082Z,4.30
2022-08-26T13:49:03.004Z,4.63
2022-08-26T13:51:31.807Z,4.90
2022-08-26T13:54:00.137Z,4.85
2022-08-26T13:56:30.385Z,4.88
2022-08-26T13:58:59.430Z,4.25
2022-08-26T14:01:28.286Z,4.30
2022-08-26T14:03:56.290Z,4.47
2022-08-26T14:06:26.093Z,4.45
2022-08-26T14:08:54.025Z,5.32
2022-08-26T14:11:22.371Z,4.93
2022-08-26T14:13:50.381Z,4.95
2022-08-26T14:16:23.378Z,4.72
2022-08-26T14:18:51.485Z,5.30
2022-08-26T14:21:20.584Z,4.88
2022-08-26T14:23:49.868Z,5.60
2022-08-26T14:26:28.658Z,5.50
2022-08-26T14:28:58.027Z,4.88
2022-08-26T14:31:26.894Z,4.85
2022-08-26T14:33:57.693Z,4.72
2022-08-26T14:36:32.630Z,4.78
2022-08-26T14:39:05.128Z,5.50
2022-08-26T14:41:34.351Z,5.80
2022-08-26T14:44:05.228Z,4.55
2022-08-26T14:46:38.435Z,5.20
2022-08-26T14:51:38.759Z,4.63
2022-08-26T14:54:13.189Z,4.97
2022-08-26T14:56:45.095Z,4.82
2022-08-26T14:59:13.598Z,4.90
2022-08-26T15:01:41.579Z,5.28
2022-08-26T15:04:09.537Z,5.22
2022-08-26T15:06:38.144Z,4.90
2022-08-26T15:09:08.119Z,5.00
2022-08-26T15:11:36.191Z,5.43
2022-08-26T15:14:04.653Z,5.07
2022-08-26T15:16:33.448Z,5.43
2022-08-26T15:19:04.210Z,4.80
2022-08-26T15:21:32.320Z,4.97
2022-08-26T15:24:01.305Z,5.32
2022-08-26T15:26:31.822Z,5.05
2022-08-26T15:29:03.098Z,4.75
2022-08-26T15:31:34.069Z,4.57
2022-08-26T15:34:05.017Z,4.95
2022-08-26T15:36:33.770Z,4.80
2022-08-26T15:39:02.440Z,4.88
2022-08-26T15:41:34.808Z,4.85
2022-08-26T15:44:04.989Z,4.73
2022-08-26T15:46:33.832Z,4.78
2022-08-26T15:49:03.538Z,4.60
2022-08-26T15:51:33.697Z,5.10
2022-08-26T15:54:03.519Z,5.13
2022-08-26T15:56:37.479Z,4.82
2022-08-26T15:59:08.649Z,5.20
2022-08-26T16:01:37.108Z,4.55
2022-08-26T16:04:05.792Z,4.97
2022-08-26T16:06:36.972Z,5.60
2022-08-26T16:09:06.266Z,5.03
2022-08-26T16:11:37.338Z,4.38
2022-08-26T16:14:05.947Z,4.95
2022-08-26T16:16:34.075Z,5.57
2022-08-26T16:19:06.841Z,5.32
2022-08-26T16:21:35.654Z,5.15
2022-08-26T16:24:04.474Z,5.68
2022-08-26T16:26:34.889Z,6.05
2022-08-26T16:29:08.729Z,6.18
2022-08-26T16:31:37.203Z,5.47
2022-08-26T16:34:05.952Z,5.88
2022-08-26T16:36:34.911Z,5.82
2022-08-26T16:39:03.804Z,5.80
2022-08-26T16:41:32.637Z,5.88
2022-08-26T16:44:00.979Z,5.18
2022-08-26T16:46:31.008Z,5.85
2022-08-26T16:49:01.509Z,5.78
2022-08-26T16:51:29.751Z,6.40
2022-08-26T16:53:59.851Z,6.15
2022-08-26T16:56:33.416Z,7.40
2022-08-26T16:59:02.266Z,6.25
2022-08-26T17:01:31.675Z,6.30
2022-08-26T17:03:59.641Z,6.13
2022-08-26T17:06:27.681Z,6.20
2022-08-26T17:08:55.611Z,6.13
2022-08-26T17:11:23.523Z,6.70
2022-08-26T17:13:51.539Z,6.57
2022-08-26T17:16:22.221Z,6.90
2022-08-26T17:18:53.897Z,6.70
2022-08-26T17:21:21.807Z,7.30
2022-08-26T17:23:50.069Z,6.78
2022-08-26T17:26:17.990Z,6.72
2022-08-26T17:28:45.923Z,7.05
2022-08-26T17:31:14.657Z,7.68
2022-08-26T17:33:42.798Z,7.57
2022-08-26T17:36:12.417Z,7.47
2022-08-26T17:38:41.384Z,7.38
2022-08-26T17:41:10.454Z,8.02
2022-08-26T17:43:39.055Z,7.78
2022-08-26T17:46:10.046Z,7.72
2022-08-26T17:48:39.366Z,7.43
2022-08-26T17:51:09.279Z,7.78
2022-08-26T17:53:38.516Z,8.05
2022-08-26T17:56:08.858Z,7.45
2022-08-26T17:58:37.260Z,8.48
2022-08-26T18:01:06.265Z,9.05
2022-08-26T18:03:35.327Z,8.65
2022-08-26T18:06:08.629Z,8.68
2022-08-26T18:11:09.188Z,8.50
2022-08-26T18:13:37.367Z,8.97
2022-08-26T18:16:07.081Z,7.68
2022-08-26T18:18:35.619Z,8.77
2022-08-26T18:21:04.274Z,8.75
2022-08-26T18:23:32.181Z,8.55
2022-08-26T18:26:00.068Z,9.40
2022-08-26T18:28:29.508Z,9.77
2022-08-26T18:31:00.429Z,8.50
2022-08-26T18:33:28.414Z,9.25
2022-08-26T18:35:56.323Z,9.55
2022-08-26T18:38:24.236Z,8.80
2022-08-26T18:40:56.365Z,8.07
2022-08-26T18:43:24.270Z,8.80
2022-08-26T18:46:04.297Z,8.82
2022-08-26T18:48:32.251Z,9.30
2022-08-26T18:51:00.401Z,8.38
2022-08-26T18:53:29.100Z,8.35
2022-08-26T18:55:57.341Z,8.65
2022-08-26T18:58:25.537Z,8.65
2022-08-26T19:00:53.922Z,8.55
2022-08-26T19:03:23.177Z,8.90
2022-08-26T19:05:51.119Z,8.88
2022-08-26T19:08:18.984Z,8.18
2022-08-26T19:10:46.837Z,9.18
2022-08-26T19:13:16.458Z,9.25
2022-08-26T19:15:46.441Z,8.48
2022-08-26T19:18:15.869Z,9.38
2022-08-26T19:20:47.842Z,9.10
2022-08-26T19:23:33.670Z,9.50
2022-08-26T19:26:04.513Z,9.38
2022-08-26T19:28:32.709Z,10.30
2022-08-26T19:31:00.886Z,10.13
2022-08-26T19:33:29.288Z,10.80
2022-08-26T19:35:58.768Z,10.25
2022-08-26T19:38:27.763Z,10.52
2022-08-26T19:40:55.761Z,10.82
2022-08-26T19:43:23.751Z,10.15
2022-08-26T19:45:51.746Z,10.65
2022-08-26T19:48:19.666Z,10.23
2022-08-26T19:50:47.617Z,11.48
2022-08-26T19:53:16.894Z,11.40
2022-08-26T19:55:44.873Z,13.18
2022-08-26T19:58:12.764Z,12.30
2022-08-26T20:00:42.363Z,12.50
2022-08-26T20:03:10.610Z,11.45
2022-08-26T20:05:41.393Z,11.05
2022-08-26T20:08:09.524Z,10.80
2022-08-26T20:10:51.773Z,10.32
2022-08-26T20:13:19.724Z,10.63
2022-08-26T20:15:47.870Z,9.93
2022-08-26T20:18:29.772Z,9.52
2022-08-26T20:21:16.086Z,9.27
2022-08-26T20:23:44.362Z,8.50
2022-08-26T20:26:13.629Z,8.65
2022-08-26T20:28:41.584Z,8.88
2022-08-26T20:31:10.722Z,9.05
2022-08-26T20:33:46.213Z,8.43
2022-08-26T20:36:15.377Z,8.50
2022-08-26T20:38:43.391Z,7.65
2022-08-26T20:41:11.712Z,7.82
2022-08-26T20:43:42.701Z,8.30
2022-08-26T20:46:16.916Z,7.90
2022-08-26T20:48:46.876Z,8.07
2022-08-26T20:51:15.287Z,7.75
2022-08-26T20:53:44.222Z,8.13
2022-08-26T20:56:14.919Z,8.63
2022-08-26T20:58:44.301Z,8.23
2022-08-26T21:01:19.324Z,8.07
2022-08-26T21:03:47.935Z,8.20
2022-08-26T21:06:15.944Z,8.48
2022-08-26T21:08:44.359Z,7.78
2022-08-26T21:11:13.153Z,8.43
2022-08-26T21:14:01.674Z,8.35
2022-08-26T21:16:30.773Z,8.98
2022-08-26T21:19:00.347Z,8.25
2022-08-26T21:21:29.186Z,7.65
2022-08-26T21:23:57.649Z,8.05
2022-08-26T21:26:25.893Z,8.25
2022-08-26T21:28:54.169Z,8.10
2022-08-26T21:31:23.837Z,7.28
2022-08-26T21:33:53.721Z,7.65
2022-08-26T21:36:21.733Z,7.55
2022-08-26T21:38:49.687Z,7.82
2022-08-26T21:41:23.084Z,7.10
2022-08-26T21:43:53.582Z,7.30
2022-08-26T21:46:23.799Z,7.50
2022-08-26T21:48:56.336Z,7.50
2022-08-26T21:51:26.640Z,7.70
2022-08-26T21:53:56.695Z,6.80
2022-08-26T21:56:27.283Z,7.43
2022-08-26T21:58:56.387Z,7.28
2022-08-26T22:01:27.851Z,7.68
2022-08-26T22:03:57.414Z,7.80
2022-08-26T22:06:28.701Z,7.78
2022-08-26T22:08:57.397Z,7.40
2022-08-26T22:11:26.084Z,7.50
2022-08-26T22:13:56.906Z,7.80
2022-08-26T22:16:26.849Z,7.82
2022-08-26T22:18:55.141Z,8.50
2022-08-26T22:21:26.887Z,7.93
2022-08-26T22:23:57.964Z,7.63
2022-08-26T22:26:28.727Z,7.68
2022-08-26T22:28:58.770Z,8.00
2022-08-26T22:31:37.755Z,8.52
2022-08-26T22:34:08.730Z,7.68
2022-08-26T22:36:43.835Z,7.70
2022-08-26T22:39:13.002Z,7.57
2022-08-26T22:41:41.263Z,7.43
2022-08-26T22:44:09.176Z,8.02
2022-08-26T22:46:38.621Z,8.27
2022-08-26T22:49:06.857Z,8.00
2022-08-26T22:51:34.765Z,7.50
2022-08-26T22:54:04.071Z,8.38
2022-08-26T22:56:31.934Z,8.50
2022-08-26T22:58:59.849Z,8.43
2022-08-26T23:01:27.926Z,9.07
2022-08-26T23:03:55.921Z,8.30
2022-08-26T23:06:24.168Z,8.25
2022-08-26T23:08:53.097Z,8.68
2022-08-26T23:11:22.828Z,8.75
2022-08-26T23:13:50.801Z,7.90
2022-08-26T23:16:18.856Z,8.70
2022-08-26T23:18:47.052Z,8.13
2022-08-26T23:21:15.185Z,8.38
2022-08-26T23:23:44.272Z,7.97
2022-08-26T23:26:16.777Z,7.70
2022-08-26T23:28:47.061Z,8.65
2022-08-26T23:31:15.369Z,7.95
2022-08-26T23:34:00.977Z,8.10
2022-08-26T23:36:30.992Z,7.47
2022-08-26T23:39:02.666Z,8.50
2022-08-26T23:41:30.595Z,8.43
2022-08-26T23:44:03.380Z,8.77
2022-08-26T23:46:32.152Z,8.02
2022-08-26T23:49:00.369Z,8.73
2022-08-26T23:51:46.123Z,8.93
2022-08-26T23:54:16.493Z,8.05
2022-08-26T23:56:44.781Z,8.48
2022-08-26T23:59:14.116Z,8.30
